Time;durP1;ratioP1;P1;durP2;ratioP2;P2;SDS_P1;SDS_P2;PMS_P1;PMS_P2;Temp;Humidity;BMP_temperature;BMP_pressure;BME280_temperature;BME280_humidity;BME280_pressure;Samples;Min_cycle;Max_cycle;Signal;HPM_P1;HPM_P2
2023/12/02 00:01:53;;;;;;;50.00;18.55;;;-3.30;71.10;;;;;;4947169;29;20062;-81
2023/12/02 00:04:21;;;;;;;56.75;20.63;;;-3.30;71.10;;;;;;4936045;29;20102;-80
2023/12/02 00:06:51;;;;;;;53.53;18.00;;;-3.30;71.10;;;;;;4935749;29;20054;-80
2023/12/02 00:09:20;;;;;;;47.53;17.23;;;-3.30;71.30;;;;;;4933560;29;20057;-81
2023/12/02 00:11:50;;;;;;;50.92;18.63;;;-3.30;71.10;;;;;;4952410;29;20051;-82
2023/12/02 00:14:18;;;;;;;51.15;18.33;;;-3.10;70.80;;;;;;4935896;29;20051;-81
2023/12/02 00:16:46;;;;;;;46.53;18.73;;;-3.00;70.30;;;;;;4953895;28;20062;-80
2023/12/02 00:19:13;;;;;;;53.75;19.73;;;-3.10;70.10;;;;;;4952309;28;20670;-80
2023/12/02 00:21:41;;;;;;;45.40;18.73;;;-3.10;70.10;;;;;;4949345;29;20094;-82
2023/12/02 00:24:09;;;;;;;55.63;19.83;;;-3.10;70.20;;;;;;4933693;29;20571;-80
2023/12/02 00:26:38;;;;;;;49.83;17.75;;;-3.10;70.20;;;;;;4933197;29;20047;-80
2023/12/02 00:29:06;;;;;;;53.20;18.65;;;-3.30;70.30;;;;;;4933173;29;20426;-80
2023/12/02 00:31:34;;;;;;;56.03;18.52;;;-3.40;71.20;;;;;;4949664;29;20062;-80
2023/12/02 00:34:02;;;;;;;52.72;18.33;;;-3.40;71.30;;;;;;4934628;29;20048;-81
2023/12/02 00:36:32;;;;;;;46.42;18.48;;;-3.30;70.70;;;;;;4949237;29;20114;-81
2023/12/02 00:38:59;;;;;;;46.08;17.55;;;-3.20;70.70;;;;;;4948305;29;20047;-80
2023/12/02 00:41:29;;;;;;;52.05;18.88;;;-3.20;70.70;;;;;;4920500;29;20106;-81
2023/12/02 00:43:58;;;;;;;49.08;19.10;;;-3.10;70.60;;;;;;4919079;29;20059;-81
2023/12/02 00:46:26;;;;;;;58.13;19.02;;;-3.10;69.90;;;;;;4934898;29;20094;-81
2023/12/02 00:48:54;;;;;;;54.25;17.95;;;-3.00;69.60;;;;;;4935589;29;20114;-81
2023/12/02 00:51:22;;;;;;;54.47;17.45;;;-3.00;69.40;;;;;;4923144;29;20427;-80
2023/12/02 00:53:53;;;;;;;44.50;17.27;;;-3.20;69.80;;;;;;4919117;29;20050;-80
2023/12/02 00:56:21;;;;;;;52.20;19.05;;;-3.20;70.20;;;;;;4920171;29;20047;-80
2023/12/02 00:58:49;;;;;;;53.60;17.50;;;-3.10;70.30;;;;;;4917314;29;20063;-80
2023/12/02 01:01:18;;;;;;;52.42;19.65;;;-3.10;70.10;;;;;;4952694;29;20061;-81
2023/12/02 01:03:45;;;;;;;58.28;19.65;;;-3.10;70.30;;;;;;4933847;29;20042;-80
2023/12/02 01:06:13;;;;;;;55.72;20.85;;;-3.00;70.30;;;;;;4934705;29;20051;-81
2023/12/02 01:08:42;;;;;;;60.85;18.88;;;-2.80;70.00;;;;;;4933191;29;20058;-82
2023/12/02 01:11:10;;;;;;;62.45;21.17;;;-2.90;69.60;;;;;;4951618;29;20126;-81
2023/12/02 01:13:38;;;;;;;55.95;21.10;;;-3.00;70.00;;;;;;4950020;29;20047;-80
2023/12/02 01:16:07;;;;;;;58.72;20.42;;;-3.00;70.40;;;;;;4948641;29;20081;-83
2023/12/02 01:18:36;;;;;;;53.50;20.88;;;-3.00;70.40;;;;;;4933570;29;20043;-82
2023/12/02 01:21:04;;;;;;;49.30;19.00;;;-2.90;70.10;;;;;;4931683;29;20099;-81
2023/12/02 01:23:31;;;;;;;55.65;20.20;;;-2.80;69.80;;;;;;4948963;29;20157;-80
2023/12/02 01:25:59;;;;;;;55.53;21.65;;;-2.80;69.70;;;;;;4938412;29;20054;-80
2023/12/02 01:28:28;;;;;;;58.88;20.15;;;-2.70;69.60;;;;;;4945794;29;20052;-80
2023/12/02 01:30:56;;;;;;;51.38;19.92;;;-2.70;69.50;;;;;;4910422;29;20047;-80
2023/12/02 01:33:24;;;;;;;57.20;20.25;;;-2.80;69.50;;;;;;4934310;29;20054;-82
2023/12/02 01:35:52;;;;;;;51.45;20.27;;;-2.80;69.50;;;;;;4945103;29;20051;-82
2023/12/02 01:38:20;;;;;;;59.80;21.30;;;-2.80;69.60;;;;;;4925513;29;20043;-81
2023/12/02 01:40:48;;;;;;;52.78;20.90;;;-2.70;69.70;;;;;;4934193;29;20055;-80
2023/12/02 01:43:26;;;;;;;60.13;23.40;;;-2.70;69.50;;;;;;4917950;29;20055;-81
2023/12/02 01:45:55;;;;;;;63.67;23.90;;;-2.80;69.50;;;;;;4947384;29;20058;-81
2023/12/02 01:48:25;;;;;;;63.53;22.10;;;-3.00;69.90;;;;;;4934826;29;20043;-81
2023/12/02 01:50:54;;;;;;;58.90;22.40;;;-3.00;70.50;;;;;;4954119;29;20110;-81
2023/12/02 01:53:22;;;;;;;68.90;23.63;;;-3.00;70.50;;;;;;4952828;28;20074;-80
2023/12/02 01:55:50;;;;;;;61.72;22.65;;;-2.90;70.30;;;;;;4947747;29;20055;-81
2023/12/02 01:58:17;;;;;;;52.40;21.45;;;-2.90;70.20;;;;;;4923692;29;20051;-79
2023/12/02 02:00:45;;;;;;;54.97;21.48;;;-2.80;70.00;;;;;;4948832;29;20055;-82
2023/12/02 02:03:13;;;;;;;62.15;22.90;;;-2.70;70.30;;;;;;4941285;28;20046;-81
2023/12/02 02:05:40;;;;;;;67.95;23.02;;;-2.60;69.20;;;;;;4950621;29;20098;-81
2023/12/02 02:08:10;;;;;;;72.57;26.60;;;-2.60;69.10;;;;;;4949825;28;20110;-80
2023/12/02 02:10:37;;;;;;;70.68;26.70;;;-2.60;69.10;;;;;;4943312;29;20075;-80
2023/12/02 02:13:04;;;;;;;71.50;25.50;;;-2.70;69.30;;;;;;4923552;29;20059;-80
2023/12/02 02:15:34;;;;;;;80.88;26.17;;;-2.70;69.60;;;;;;4925195;29;20130;-82
2023/12/02 02:18:01;;;;;;;72.07;24.95;;;-2.80;69.40;;;;;;4938326;29;20119;-79
2023/12/02 02:20:53;;;;;;;75.45;27.60;;;-2.80;69.40;;;;;;4935080;29;20090;-81
2023/12/02 02:23:24;;;;;;;88.75;27.05;;;-2.70;69.60;;;;;;4949931;29;20051;-81
2023/12/02 02:25:54;;;;;;;79.07;27.20;;;-2.80;69.40;;;;;;4934908;29;20106;-81
2023/12/02 02:28:22;;;;;;;79.00;26.40;;;-2.80;69.60;;;;;;4951506;29;20043;-82
2023/12/02 02:30:50;;;;;;;73.72;25.67;;;-2.80;69.70;;;;;;4932746;29;20508;-82
2023/12/02 02:33:19;;;;;;;76.10;24.73;;;-2.90;69.70;;;;;;4935294;29;20051;-81
2023/12/02 02:35:47;;;;;;;68.50;27.02;;;-2.90;70.00;;;;;;4950632;29;20058;-81
2023/12/02 02:38:15;;;;;;;72.90;26.67;;;-2.70;69.80;;;;;;4951873;28;20059;-82
2023/12/02 02:40:45;;;;;;;80.10;27.98;;;-2.70;69.60;;;;;;4949776;28;20134;-81
2023/12/02 02:43:12;;;;;;;67.38;25.48;;;-2.70;69.60;;;;;;4936165;29;20081;-80
2023/12/02 02:45:40;;;;;;;71.90;27.23;;;-2.80;69.20;;;;;;4920242;29;20051;-80
2023/12/02 02:48:09;;;;;;;67.18;25.58;;;-2.80;69.20;;;;;;4946463;29;20059;-81
2023/12/02 02:50:37;;;;;;;76.32;28.70;;;-2.80;69.40;;;;;;4941308;29;20151;-80
2023/12/02 02:53:05;;;;;;;71.78;26.23;;;-2.70;69.00;;;;;;4936764;29;20579;-81
2023/12/02 02:55:32;;;;;;;59.38;24.15;;;-2.60;68.70;;;;;;4917443;29;20158;-80
2023/12/02 02:58:02;;;;;;;68.25;25.42;;;-2.60;68.60;;;;;;4932450;28;20054;-79
2023/12/02 03:00:29;;;;;;;63.92;24.77;;;-2.60;68.50;;;;;;4920859;29;20149;-79
2023/12/02 03:02:57;;;;;;;61.15;24.85;;;-2.60;68.50;;;;;;4921901;29;20504;-79
2023/12/02 03:05:25;;;;;;;59.92;23.50;;;-2.60;68.50;;;;;;4937423;29;20082;-79
2023/12/02 03:07:52;;;;;;;58.97;22.33;;;-2.60;68.20;;;;;;4953832;28;20055;-79
2023/12/02 03:10:20;;;;;;;60.30;24.70;;;-2.70;68.30;;;;;;4941512;29;20056;-78
2023/12/02 03:12:47;;;;;;;66.88;25.88;;;-2.60;68.20;;;;;;4935051;29;20058;-79
2023/12/02 03:15:17;;;;;;;56.47;24.38;;;-2.60;68.00;;;;;;4925310;29;20074;-79
2023/12/02 03:17:44;;;;;;;62.30;24.90;;;-2.70;68.00;;;;;;4944373;29;20048;-78
2023/12/02 03:20:13;;;;;;;59.13;24.40;;;-2.60;67.90;;;;;;4936229;29;20131;-79
2023/12/02 03:22:41;;;;;;;57.53;23.23;;;-2.60;67.40;;;;;;4947210;29;20052;-80
2023/12/02 03:25:09;;;;;;;53.28;23.38;;;-2.70;67.70;;;;;;4944684;29;20427;-78
2023/12/02 03:27:37;;;;;;;62.25;24.40;;;-2.70;68.00;;;;;;4936002;29;20062;-78
2023/12/02 03:30:06;;;;;;;61.40;24.85;;;-2.70;68.00;;;;;;4952058;29;20078;-79
2023/12/02 03:32:39;;;;;;;56.47;22.92;;;-2.80;68.40;;;;;;4952545;29;20085;-79
2023/12/02 03:35:08;;;;;;;53.25;25.15;;;-2.80;68.40;;;;;;4917827;29;20059;-80
2023/12/02 03:37:37;;;;;;;63.53;24.52;;;-2.80;68.30;;;;;;4935245;29;20059;-79
2023/12/02 03:40:06;;;;;;;56.53;22.98;;;-2.80;67.80;;;;;;4916801;29;20055;-79
2023/12/02 03:42:34;;;;;;;56.88;22.38;;;-2.90;68.00;;;;;;4945598;29;20043;-79
2023/12/02 03:45:02;;;;;;;55.40;23.17;;;-3.00;68.20;;;;;;4935635;29;20135;-79
2023/12/02 03:47:31;;;;;;;53.13;22.52;;;-2.90;68.50;;;;;;4935973;29;20053;-79
2023/12/02 03:50:00;;;;;;;56.90;23.52;;;-2.80;68.40;;;;;;4932357;29;20545;-80
2023/12/02 03:52:28;;;;;;;51.10;22.65;;;-2.80;68.20;;;;;;4930612;29;20055;-79
2023/12/02 03:54:58;;;;;;;49.28;22.08;;;-2.70;68.10;;;;;;4935866;29;20051;-80
2023/12/02 03:57:25;;;;;;;47.78;22.30;;;-2.60;67.90;;;;;;4950867;28;20138;-80
2023/12/02 03:59:56;;;;;;;51.42;23.27;;;-2.60;67.50;;;;;;4934758;29;20097;-81
2023/12/02 04:02:24;;;;;;;49.70;21.88;;;-2.60;67.50;;;;;;4939936;29;20082;-81
2023/12/02 04:04:52;;;;;;;55.92;22.92;;;-2.60;67.40;;;;;;4958894;29;20066;-81
2023/12/02 04:07:21;;;;;;;64.85;24.23;;;-2.70;67.80;;;;;;4940590;29;20139;-80
2023/12/02 04:09:50;;;;;;;74.63;26.23;;;-2.80;68.40;;;;;;4933988;29;20047;-79
2023/12/02 04:12:18;;;;;;;70.53;25.95;;;-2.70;68.90;;;;;;4919063;29;20114;-79
2023/12/02 04:14:46;;;;;;;73.82;27.45;;;-2.80;69.10;;;;;;4936175;29;20098;-82
2023/12/02 04:17:13;;;;;;;72.85;25.90;;;-2.90;69.40;;;;;;4942717;29;20547;-80
2023/12/02 04:19:42;;;;;;;77.20;27.48;;;-3.00;69.80;;;;;;4944716;28;20059;-81
2023/12/02 04:22:38;;;;;;;;;;;;;;;;;;;;;
2023/12/02 04:26:22;;;;;;;;;;;;;;;;;;;;;
2023/12/02 04:29:42;;;;;;;68.07;25.13;;;-3.00;70.00;;;;;;4880572;29;20084;-82
2023/12/02 04:32:39;;;;;;;63.70;24.02;;;-3.00;70.30;;;;;;4912008;29;20107;-82
2023/12/02 04:35:38;;;;;;;66.97;22.75;;;-3.00;70.60;;;;;;4932230;29;20138;-81
2023/12/02 04:38:08;;;;;;;69.63;24.15;;;-3.10;70.20;;;;;;4943816;29;20055;-78
2023/12/02 04:40:37;;;;;;;70.97;24.60;;;-3.00;69.90;;;;;;4956335;28;20418;-81
2023/12/02 04:43:07;;;;;;;63.42;24.75;;;-2.90;69.50;;;;;;4906722;29;20052;-81
2023/12/02 04:45:35;;;;;;;74.22;24.33;;;-3.00;69.20;;;;;;4913442;29;20063;-79
2023/12/02 04:48:03;;;;;;;73.63;22.98;;;-3.00;69.20;;;;;;4871010;29;20056;-79
2023/12/02 04:50:30;;;;;;;68.07;23.17;;;-3.10;69.20;;;;;;4813554;29;20524;-80
2023/12/02 04:52:58;;;;;;;71.15;23.85;;;-3.10;69.40;;;;;;4827785;29;20115;-81
2023/12/02 05:02:03;;;;;;;;;;;;;;;;;;;;;
2023/12/02 05:08:25;;;;;;;;;;;;;;;;;;;;;
2023/12/02 05:11:24;;;;;;;58.08;22.33;;;-2.60;67.60;;;;;;4565685;30;20067;-80
2023/12/02 05:14:31;;;;;;;;;;;;;;;;;;;;;
2023/12/02 05:17:29;;;;;;;57.25;21.63;;;-2.70;67.70;;;;;;4655280;30;20058;-80
2023/12/02 05:19:58;;;;;;;69.78;22.92;;;-2.70;67.30;;;;;;4667547;30;20161;-79
2023/12/02 05:22:26;;;;;;;54.95;22.30;;;-2.70;67.10;;;;;;4584694;30;20060;-79
2023/12/02 05:24:54;;;;;;;61.53;22.98;;;-2.70;66.90;;;;;;4580048;31;20142;-79
2023/12/02 05:27:22;;;;;;;56.17;22.27;;;-2.70;66.90;;;;;;4596025;30;20361;-80
2023/12/02 05:32:56;;;;;;;56.30;21.10;;;-2.90;67.70;;;;;;4612560;30;19957;-82
2023/12/02 06:10:51;;;;;;;53.85;21.08;;;-2.90;67.10;;;;;;5096012;27;1438953;-77
2023/12/02 06:13:18;;;;;;;58.72;23.63;;;-2.80;67.10;;;;;;5106164;28;20150;-80
2023/12/02 06:15:46;;;;;;;59.70;23.08;;;-2.80;67.10;;;;;;5107529;28;20044;-77
2023/12/02 06:18:14;;;;;;;50.28;20.67;;;-2.80;67.40;;;;;;5099585;28;20569;-80
2023/12/02 06:20:43;;;;;;;56.55;22.25;;;-2.80;67.60;;;;;;5088362;28;20082;-79
2023/12/02 06:23:11;;;;;;;60.30;22.30;;;-2.90;67.90;;;;;;5066261;28;20147;-79
2023/12/02 06:25:39;;;;;;;55.38;21.98;;;-3.00;68.20;;;;;;5094306;28;20073;-79
2023/12/02 06:28:08;;;;;;;58.28;22.40;;;-3.00;68.30;;;;;;5107299;28;20079;-80
2023/12/02 06:30:35;;;;;;;51.22;20.90;;;-2.90;68.50;;;;;;5108050;28;20054;-78
2023/12/02 06:33:03;;;;;;;60.22;22.98;;;-2.90;68.20;;;;;;5089398;28;20052;-79
2023/12/02 06:35:32;;;;;;;59.20;22.67;;;-2.90;68.20;;;;;;5075129;28;20048;-79
2023/12/02 06:38:00;;;;;;;58.63;22.70;;;-2.90;68.40;;;;;;5086330;28;20079;-79
2023/12/02 06:40:28;;;;;;;60.40;21.98;;;-3.00;68.40;;;;;;5103817;28;20054;-80
2023/12/02 06:42:55;;;;;;;58.85;22.95;;;-3.00;68.50;;;;;;5086004;28;20097;-78
2023/12/02 06:45:24;;;;;;;64.85;22.88;;;-3.10;68.60;;;;;;5087195;28;20044;-80
2023/12/02 06:47:52;;;;;;;65.75;24.05;;;-3.10;68.90;;;;;;5086983;28;20060;-79
2023/12/02 06:50:20;;;;;;;63.88;23.73;;;-3.20;69.10;;;;;;5087212;28;20056;-80
2023/12/02 06:52:47;;;;;;;59.30;22.88;;;-3.20;69.20;;;;;;5067791;28;20129;-80
2023/12/02 06:55:15;;;;;;;62.38;23.17;;;-3.20;69.40;;;;;;5087059;28;20497;-79
2023/12/02 06:57:43;;;;;;;65.45;23.05;;;-3.20;69.80;;;;;;5099689;28;20058;-79
2023/12/02 07:00:13;;;;;;;60.30;23.63;;;-3.20;69.90;;;;;;5088682;28;20407;-79
2023/12/02 07:02:44;;;;;;;57.63;23.92;;;-3.20;69.80;;;;;;5076393;28;20054;-80
2023/12/02 07:05:15;;;;;;;55.67;22.65;;;-3.20;69.70;;;;;;5086593;28;20052;-79
2023/12/02 07:07:43;;;;;;;66.22;25.17;;;-3.10;69.30;;;;;;5086875;28;20052;-79
2023/12/02 07:10:10;;;;;;;66.60;26.10;;;-3.00;69.10;;;;;;5067351;28;20047;-80
2023/12/02 07:12:38;;;;;;;65.28;22.67;;;-3.10;69.10;;;;;;5054314;28;20048;-80
2023/12/02 07:15:07;;;;;;;66.40;26.13;;;-3.10;69.20;;;;;;5105023;28;20074;-79
2023/12/02 07:17:35;;;;;;;74.55;27.70;;;-3.10;69.10;;;;;;5086448;28;20044;-80
2023/12/02 07:20:06;;;;;;;74.97;29.45;;;-3.10;69.30;;;;;;5085071;28;20047;-79
2023/12/02 07:22:34;;;;;;;72.50;27.85;;;-3.00;69.10;;;;;;5090769;28;20560;-80
2023/12/02 07:25:02;;;;;;;76.18;31.55;;;-3.00;68.90;;;;;;5072763;28;20082;-80
2023/12/02 07:27:30;;;;;;;79.80;29.35;;;-3.00;69.10;;;;;;5073165;28;20076;-80
2023/12/02 07:29:57;;;;;;;77.32;28.48;;;-3.00;69.40;;;;;;5068447;28;20103;-80
2023/12/02 07:32:25;;;;;;;70.72;26.33;;;-3.00;69.20;;;;;;5054265;28;20044;-79
2023/12/02 07:34:53;;;;;;;69.93;27.92;;;-3.10;69.40;;;;;;5054524;28;20151;-79
2023/12/02 07:37:22;;;;;;;70.60;27.60;;;-3.00;69.60;;;;;;5072476;28;20505;-79
2023/12/02 07:39:50;;;;;;;79.13;28.13;;;-3.10;69.50;;;;;;5070528;28;20048;-80
2023/12/02 07:42:18;;;;;;;65.45;25.45;;;-3.00;69.70;;;;;;5059824;28;20455;-78
2023/12/02 07:44:46;;;;;;;57.60;24.50;;;-3.00;69.70;;;;;;5090916;28;20714;-77
2023/12/02 07:47:14;;;;;;;63.38;24.00;;;-2.80;69.50;;;;;;5070909;28;20127;-80
2023/12/02 07:49:43;;;;;;;61.47;25.38;;;-2.60;68.60;;;;;;5073093;28;20472;-79
2023/12/02 07:52:11;;;;;;;61.33;26.10;;;-2.50;67.40;;;;;;5087666;28;20044;-79
2023/12/02 07:54:40;;;;;;;72.72;25.67;;;-2.50;67.30;;;;;;5087968;28;20062;-80
2023/12/02 07:57:08;;;;;;;59.08;24.17;;;-2.60;67.50;;;;;;5085061;28;20074;-80
2023/12/02 07:59:37;;;;;;;62.05;22.85;;;-2.60;67.50;;;;;;5075878;28;20413;-79
2023/12/02 08:02:05;;;;;;;67.60;28.15;;;-2.50;67.40;;;;;;5081880;28;20040;-79
2023/12/02 08:04:35;;;;;;;68.97;26.95;;;-2.40;66.90;;;;;;5088420;28;20036;-80
2023/12/02 08:07:15;;;;;;;65.90;28.13;;;-2.50;66.90;;;;;;5038642;28;20041;-81
2023/12/02 08:09:49;;;;;;;68.65;26.58;;;-2.60;67.30;;;;;;5079508;28;20151;-82
2023/12/02 08:13:23;;;;;;;67.40;26.55;;;-2.70;67.50;;;;;;5030568;28;20203;-81
2023/12/02 08:16:04;;;;;;;65.57;24.23;;;-2.70;67.70;;;;;;4992875;28;20062;-81
2023/12/02 08:18:37;;;;;;;72.50;28.05;;;-2.80;67.90;;;;;;5035112;28;20044;-81
2023/12/02 08:21:05;;;;;;;83.75;31.85;;;-2.80;68.20;;;;;;5084930;28;20432;-79
2023/12/02 08:23:33;;;;;;;93.15;36.38;;;-2.80;67.80;;;;;;5086866;28;20052;-82
2023/12/02 08:26:04;;;;;;;84.57;34.85;;;-2.80;67.70;;;;;;5041011;28;20040;-80
2023/12/02 08:28:32;;;;;;;79.47;34.20;;;-2.80;67.60;;;;;;5082091;28;20085;-79
2023/12/02 08:30:59;;;;;;;88.40;35.15;;;-2.80;68.40;;;;;;5072221;28;20050;-80
2023/12/02 08:33:29;;;;;;;83.68;34.30;;;-2.80;67.50;;;;;;5061219;28;20067;-80
2023/12/02 08:35:57;;;;;;;80.85;33.88;;;-2.80;67.80;;;;;;5062488;28;20060;-81
2023/12/02 08:38:24;;;;;;;74.78;29.60;;;-2.80;68.20;;;;;;5061452;28;20443;-81
2023/12/02 08:40:52;;;;;;;75.05;30.98;;;-2.80;68.40;;;;;;5047060;28;20475;-81
2023/12/02 08:43:22;;;;;;;73.32;29.13;;;-2.70;68.20;;;;;;5081744;28;20044;-81
2023/12/02 08:46:19;;;;;;;72.47;28.73;;;-2.70;68.10;;;;;;5061037;28;20044;-81
2023/12/02 08:49:06;;;;;;;72.03;27.77;;;-2.70;68.10;;;;;;5064159;28;20767;-79
2023/12/02 08:51:54;;;;;;;73.40;29.08;;;-2.70;68.10;;;;;;5081065;28;20044;-82
2023/12/02 08:54:25;;;;;;;64.57;27.13;;;-2.60;68.00;;;;;;5050574;28;20055;-81
2023/12/02 08:56:55;;;;;;;70.70;27.92;;;-2.70;67.90;;;;;;5081860;28;20143;-81
2023/12/02 08:59:25;;;;;;;69.53;29.48;;;-2.70;68.10;;;;;;5060816;28;20101;-82
2023/12/02 09:01:54;;;;;;;76.45;29.05;;;-2.60;68.10;;;;;;5079223;28;20048;-80
2023/12/02 09:04:23;;;;;;;66.75;27.33;;;-2.70;67.80;;;;;;5061834;28;20050;-81
2023/12/02 09:06:51;;;;;;;69.55;27.67;;;-2.70;68.30;;;;;;5055718;28;20492;-82
2023/12/02 09:09:20;;;;;;;62.35;25.85;;;-2.70;68.90;;;;;;5081066;28;20089;-81
2023/12/02 09:11:53;;;;;;;73.55;28.25;;;-2.60;68.90;;;;;;5076602;28;20044;-81
2023/12/02 09:14:21;;;;;;;66.77;28.37;;;-2.60;68.30;;;;;;5093165;28;20044;-81
2023/12/02 09:16:55;;;;;;;69.90;26.13;;;-2.60;68.10;;;;;;5074802;28;20054;-82
2023/12/02 09:19:56;;;;;;;70.10;28.95;;;-2.60;68.30;;;;;;5080850;28;20048;-82
2023/12/02 09:22:47;;;;;;;62.42;24.60;;;-2.60;68.10;;;;;;5075778;28;20406;-82
2023/12/02 09:25:38;;;;;;;78.35;28.70;;;-2.60;68.20;;;;;;5069028;28;20040;-81
2023/12/02 09:28:20;;;;;;;63.80;26.77;;;-2.50;68.20;;;;;;5084992;28;20044;-80
2023/12/02 09:34:59;;;;;;;67.30;26.92;;;-2.40;68.90;;;;;;5080623;28;20470;-81
2023/12/02 09:38:01;;;;;;;62.33;25.73;;;-2.40;68.60;;;;;;5083376;28;20041;-80
2023/12/02 09:40:40;;;;;;;70.32;26.77;;;-2.20;68.20;;;;;;5037746;28;20051;-81
2023/12/02 09:43:35;;;;;;;67.05;25.95;;;-2.20;67.90;;;;;;5063378;28;20047;-83
2023/12/02 09:46:26;;;;;;;62.58;25.35;;;-2.20;67.80;;;;;;5041787;28;20563;-82
2023/12/02 09:49:16;;;;;;;70.25;25.73;;;-2.20;67.90;;;;;;5081515;28;20052;-81
2023/12/02 09:52:06;;;;;;;65.07;25.88;;;-2.10;67.90;;;;;;5062309;28;20532;-81
2023/12/02 09:54:46;;;;;;;64.75;26.25;;;-2.10;67.80;;;;;;5064547;28;20040;-80
2023/12/02 09:57:26;;;;;;;57.70;24.25;;;-2.10;67.80;;;;;;5049805;28;20121;-80
2023/12/02 10:00:09;;;;;;;64.32;26.92;;;-2.10;67.60;;;;;;5061776;28;20143;-83
2023/12/02 10:03:17;;;;;;;63.55;26.42;;;-2.20;68.00;;;;;;5056052;28;20466;-79
2023/12/02 10:06:10;;;;;;;65.43;27.38;;;-2.10;67.90;;;;;;5062279;28;20053;-80
2023/12/02 10:08:55;;;;;;;58.50;24.63;;;-2.10;68.20;;;;;;5079957;28;20062;-81
2023/12/02 10:11:35;;;;;;;60.60;24.30;;;-2.10;68.10;;;;;;5080459;28;20059;-78
2023/12/02 10:14:13;;;;;;;60.78;26.00;;;-2.10;68.00;;;;;;5059735;28;20046;-80
2023/12/02 10:16:46;;;;;;;60.75;26.83;;;-2.10;67.80;;;;;;5080932;28;20060;-79
2023/12/02 10:19:22;;;;;;;59.67;27.13;;;-2.10;67.50;;;;;;5079092;28;20049;-78
2023/12/02 10:21:55;;;;;;;63.97;27.42;;;-2.10;67.00;;;;;;5063958;28;20048;-79
2023/12/02 10:24:30;;;;;;;63.75;28.77;;;-2.10;67.30;;;;;;5078192;28;20138;-78
2023/12/02 10:27:04;;;;;;;82.68;34.03;;;-2.10;67.60;;;;;;5085245;28;20044;-84
2023/12/02 10:29:37;;;;;;;77.35;33.58;;;-2.10;67.40;;;;;;5047270;28;20043;-82
2023/12/02 10:32:35;;;;;;;82.53;35.20;;;-2.10;67.10;;;;;;5089337;28;20052;-82
2023/12/02 10:35:13;;;;;;;81.25;37.08;;;-2.10;67.20;;;;;;5095456;28;20048;-79
2023/12/02 10:37:44;;;;;;;84.40;37.72;;;-2.20;67.30;;;;;;5072089;28;20048;-80
2023/12/02 10:40:16;;;;;;;80.18;37.28;;;-2.20;67.20;;;;;;5072882;28;20118;-80
2023/12/02 10:42:55;;;;;;;72.43;31.17;;;-2.20;67.60;;;;;;5090076;28;20189;-81
2023/12/02 10:45:26;;;;;;;68.93;29.83;;;-2.20;67.90;;;;;;5071324;28;20044;-81
2023/12/02 10:48:00;;;;;;;76.38;30.15;;;-2.30;67.70;;;;;;5071850;28;20060;-79
2023/12/02 10:50:30;;;;;;;68.28;30.30;;;-2.20;68.00;;;;;;5088693;28;20048;-81
2023/12/02 10:53:03;;;;;;;71.72;30.17;;;-2.30;68.20;;;;;;5066308;28;20043;-81
2023/12/02 10:55:34;;;;;;;62.55;26.17;;;-2.20;68.30;;;;;;5050128;28;20522;-82
2023/12/02 10:58:06;;;;;;;74.35;29.52;;;-2.30;68.20;;;;;;5072995;28;20533;-82
2023/12/02 11:00:37;;;;;;;65.07;28.70;;;-2.20;68.10;;;;;;5073145;28;20060;-82
2023/12/02 11:03:10;;;;;;;60.90;27.35;;;-2.20;68.10;;;;;;5073286;28;20044;-81
2023/12/02 11:05:45;;;;;;;55.08;26.13;;;-2.20;67.90;;;;;;5073471;28;20234;-81
2023/12/02 11:08:23;;;;;;;63.75;27.48;;;-2.20;67.90;;;;;;5072837;28;20049;-81
2023/12/02 11:10:57;;;;;;;58.67;27.17;;;-2.20;67.60;;;;;;5079240;28;20052;-82
2023/12/02 11:13:25;;;;;;;55.33;24.88;;;-2.30;68.30;;;;;;5094682;28;20046;-81
2023/12/02 11:16:17;;;;;;;59.55;25.40;;;-2.30;67.80;;;;;;5060651;28;20052;-81
2023/12/02 11:19:15;;;;;;;57.88;24.88;;;-2.30;68.30;;;;;;5076380;28;20090;-80
2023/12/02 11:22:01;;;;;;;59.55;23.88;;;-2.30;68.20;;;;;;5037966;28;20049;-80
2023/12/02 11:24:45;;;;;;;58.58;24.45;;;-2.30;67.90;;;;;;5072276;28;20058;-81
2023/12/02 11:27:26;;;;;;;53.03;22.92;;;-2.30;67.50;;;;;;5066980;28;20078;-80
2023/12/02 11:30:07;;;;;;;53.42;22.38;;;-2.30;67.80;;;;;;5072959;28;20053;-80
2023/12/02 11:32:46;;;;;;;49.97;21.48;;;-2.30;67.90;;;;;;5062512;28;20147;-79
2023/12/02 11:35:19;;;;;;;51.97;21.77;;;-2.30;67.40;;;;;;5090495;28;20059;-82
2023/12/02 11:37:58;;;;;;;53.78;23.60;;;-2.30;67.60;;;;;;5081389;28;20071;-81
2023/12/02 11:40:43;;;;;;;59.03;25.38;;;-2.30;67.80;;;;;;5076653;28;20037;-81
2023/12/02 11:43:31;;;;;;;58.65;24.67;;;-2.20;67.60;;;;;;5066222;28;20496;-80
2023/12/02 11:46:04;;;;;;;57.72;24.10;;;-2.20;67.60;;;;;;5066653;28;20143;-80
2023/12/02 11:48:43;;;;;;;58.63;26.77;;;-2.30;67.60;;;;;;5066133;28;20637;-81
2023/12/02 11:51:39;;;;;;;67.28;26.73;;;-2.30;67.30;;;;;;5048354;28;20060;-81
2023/12/02 11:54:25;;;;;;;57.05;24.95;;;-2.30;67.90;;;;;;5037253;28;20044;-81
2023/12/02 11:57:18;;;;;;;64.25;27.00;;;-2.40;68.50;;;;;;5068979;28;20099;-81
2023/12/02 12:00:07;;;;;;;73.55;28.10;;;-2.40;68.20;;;;;;5060970;28;20058;-79
2023/12/02 12:03:04;;;;;;;75.78;27.98;;;-2.40;68.50;;;;;;5074535;28;20064;-80
2023/12/02 12:05:50;;;;;;;67.88;29.17;;;-2.40;69.70;;;;;;5047095;28;20087;-79
2023/12/02 12:08:21;;;;;;;67.93;29.38;;;-2.40;68.80;;;;;;5066188;28;20053;-79
2023/12/02 12:10:52;;;;;;;66.80;29.70;;;-2.40;69.20;;;;;;5032654;28;20044;-80
2023/12/02 12:13:22;;;;;;;64.40;28.52;;;-2.30;68.80;;;;;;5066008;28;20554;-80
2023/12/02 12:16:01;;;;;;;75.05;28.15;;;-2.40;68.60;;;;;;5065712;28;20132;-82
2023/12/02 12:18:29;;;;;;;70.07;28.92;;;-2.40;68.80;;;;;;5056208;28;20044;-79
2023/12/02 12:20:58;;;;;;;65.95;27.70;;;-2.40;68.90;;;;;;5057346;28;20107;-83
2023/12/02 12:23:28;;;;;;;66.15;28.27;;;-2.40;68.90;;;;;;5058675;28;20055;-80
2023/12/02 12:25:56;;;;;;;65.20;29.00;;;-2.40;68.90;;;;;;5060010;28;20047;-80
2023/12/02 12:28:25;;;;;;;63.13;27.13;;;-2.40;69.30;;;;;;5061520;28;20222;-81
2023/12/02 12:30:57;;;;;;;72.38;30.42;;;-2.40;69.80;;;;;;5055740;28;20071;-83
2023/12/02 12:33:25;;;;;;;71.88;28.77;;;-2.40;69.50;;;;;;5048928;28;20171;-81
2023/12/02 12:35:54;;;;;;;71.65;28.90;;;-2.40;69.70;;;;;;5059238;28;20504;-81
2023/12/02 12:38:22;;;;;;;67.03;28.45;;;-2.40;69.50;;;;;;5042435;28;20163;-82
2023/12/02 12:40:51;;;;;;;71.18;29.95;;;-2.40;69.50;;;;;;5057726;28;20043;-82
2023/12/02 12:43:19;;;;;;;76.72;31.23;;;-2.40;69.50;;;;;;5024114;28;20395;-83
2023/12/02 12:45:53;;;;;;;63.60;28.67;;;-2.40;69.60;;;;;;5060261;28;21067;-82
2023/12/02 12:48:26;;;;;;;73.60;30.92;;;-2.40;69.60;;;;;;5042930;28;20566;-83
2023/12/02 12:50:58;;;;;;;80.68;32.70;;;-2.30;69.70;;;;;;5041120;28;20316;-83
2023/12/02 12:53:37;;;;;;;66.63;28.92;;;-2.30;69.60;;;;;;5030498;28;20490;-82
2023/12/02 12:56:16;;;;;;;68.70;31.00;;;-2.40;70.00;;;;;;5025218;28;20036;-83
2023/12/02 12:59:03;;;;;;;;;;;;;;;;;;;;;
2023/12/02 13:02:02;;;;;;;74.78;30.33;;;-2.40;70.10;;;;;;5043397;28;20377;-82
2023/12/02 13:04:38;;;;;;;76.38;29.42;;;-2.30;70.20;;;;;;5049850;28;20140;-83
2023/12/02 13:07:12;;;;;;;73.93;29.60;;;-2.30;70.30;;;;;;5058513;28;20097;-81
2023/12/02 13:10:23;;;;;;;81.50;32.83;;;-2.40;70.30;;;;;;5060892;28;20250;-83
2023/12/02 13:13:09;;;;;;;74.28;32.28;;;-2.30;70.50;;;;;;5043599;28;20534;-83
2023/12/02 13:16:17;;;;;;;;;;;;;;;;;;;;;
2023/12/02 13:18:52;;;;;;;76.22;31.80;;;-2.40;70.60;;;;;;5066550;28;20496;-80
2023/12/02 13:21:36;;;;;;;70.88;30.70;;;-2.40;70.60;;;;;;5062371;28;20044;-84
2023/12/02 13:24:12;;;;;;;66.05;29.65;;;-2.30;70.60;;;;;;5040677;28;20048;-82
2023/12/02 13:26:51;;;;;;;69.95;29.50;;;-2.40;70.20;;;;;;5042201;28;20706;-82
2023/12/02 13:29:26;;;;;;;69.38;30.50;;;-2.40;69.80;;;;;;5058850;28;20048;-82
2023/12/02 13:32:10;;;;;;;;;;;;;;;;;;;;;
2023/12/02 13:35:15;;;;;;;;;;;-2.40;69.80;;;;;;5040547;28;20048;-83
2023/12/02 13:38:18;;;;;;;70.43;28.85;;;-2.50;70.00;;;;;;5046869;28;19931;-81
2023/12/02 13:41:17;;;;;;;74.55;28.65;;;-2.50;70.30;;;;;;5034747;28;20467;-80
2023/12/02 13:44:06;;;;;;;69.93;29.33;;;-2.50;69.90;;;;;;5027233;28;20069;-83
2023/12/02 13:47:49;;;;;;;64.63;28.00;;;-2.60;69.50;;;;;;5026500;28;20121;-83
2023/12/02 13:53:45;;;;;;;62.30;26.75;;;-2.60;69.70;;;;;;5039081;28;20043;-79
2023/12/02 13:56:26;;;;;;;63.22;28.27;;;-2.60;70.10;;;;;;5046347;28;20120;-81
2023/12/02 13:59:12;;;;;;;71.85;28.67;;;-2.60;70.10;;;;;;5058526;28;20614;-81
2023/12/02 14:01:55;;;;;;;66.57;27.30;;;-2.60;70.40;;;;;;5058172;28;20056;-82
2023/12/02 14:04:49;;;;;;;72.05;27.70;;;-2.70;70.60;;;;;;5059740;28;20045;-83
2023/12/02 14:07:35;;;;;;;69.28;28.42;;;-2.70;70.60;;;;;;5059792;28;20052;-83
2023/12/02 14:10:13;;;;;;;59.45;26.52;;;-2.60;70.70;;;;;;5056783;28;20071;-82